EGXW/WTN METAR and TAF weather

Enter ICAO airport designator
Station Type Date Time Source
EGXW METAR 2022/11/26 08:50 UTC NOAA

EGXW 260850Z AUTO 20013KT 9999 SCT150/// 08/06 Q1021


Station Type Date Time Source
EGXW Decoded METAR 2022/11/26 08:50 UTC NOAA

Waddington, United Kingdom (EGXW) 53-10N 000-31W 0M
Nov 26, 2022 - 03:50 AM EST / 2022.11.26 0850 UTC
Wind: from the SSW (200 degrees) at 15 MPH (13 KT):0
Visibility: greater than 7 mile(s):0
Sky conditions: partly cloudy
Temperature: 46 F (8 C)
Dew Point: 42 F (6 C)
Relative Humidity: 87%
Pressure (altimeter): 30.15 in. Hg (1021 hPa)
ob: EGXW 260850Z AUTO 20013KT 9999 SCT150/// 08/06 Q1021
cycle: 9

Station Type Date Time Source
EGXW TAF 2022/11/25 15:33 UTC NOAA

TAF EGXW 251320Z 2515/2609 21010KT 9999 FEW030

Example: see airport list